sensor_id;sensor_type;location;lat;lon;timestamp;P1;durP1;ratioP1;P2;durP2;ratioP2
79143;SDS011;68551;47.484;19.092;2023-07-22T00:01:43;6.75;;;4.78;;
79143;SDS011;68551;47.484;19.092;2023-07-22T00:04:50;7.68;;;4.28;;
79143;SDS011;68551;47.484;19.092;2023-07-22T00:07:56;5.72;;;5.05;;
79143;SDS011;68551;47.484;19.092;2023-07-22T00:10:58;6.85;;;4.57;;
79143;SDS011;68551;47.484;19.092;2023-07-22T00:14:03;12.73;;;4.80;;
79143;SDS011;68551;47.484;19.092;2023-07-22T00:17:08;5.43;;;4.47;;
79143;SDS011;68551;47.484;19.092;2023-07-22T00:20:11;6.03;;;5.00;;
79143;SDS011;68551;47.484;19.092;2023-07-22T00:23:13;6.13;;;4.72;;
79143;SDS011;68551;47.484;19.092;2023-07-22T00:26:19;6.03;;;4.40;;
79143;SDS011;68551;47.484;19.092;2023-07-22T00:29:21;6.85;;;5.13;;
79143;SDS011;68551;47.484;19.092;2023-07-22T00:32:23;9.60;;;5.40;;
79143;SDS011;68551;47.484;19.092;2023-07-22T00:35:28;7.65;;;5.22;;
79143;SDS011;68551;47.484;19.092;2023-07-22T00:38:33;7.05;;;5.05;;
79143;SDS011;68551;47.484;19.092;2023-07-22T00:41:35;7.65;;;4.93;;
79143;SDS011;68551;47.484;19.092;2023-07-22T00:44:38;7.78;;;6.07;;
79143;SDS011;68551;47.484;19.092;2023-07-22T00:47:42;7.45;;;5.32;;
79143;SDS011;68551;47.484;19.092;2023-07-22T00:50:48;11.23;;;5.40;;
79143;SDS011;68551;47.484;19.092;2023-07-22T00:53:53;6.88;;;4.85;;
79143;SDS011;68551;47.484;19.092;2023-07-22T00:56:58;6.05;;;4.90;;
79143;SDS011;68551;47.484;19.092;2023-07-22T01:00:03;8.15;;;5.40;;
79143;SDS011;68551;47.484;19.092;2023-07-22T01:03:10;6.60;;;5.55;;
79143;SDS011;68551;47.484;19.092;2023-07-22T01:06:18;7.57;;;5.28;;
79143;SDS011;68551;47.484;19.092;2023-07-22T01:09:24;7.53;;;5.35;;
79143;SDS011;68551;47.484;19.092;2023-07-22T01:12:27;8.48;;;5.82;;
79143;SDS011;68551;47.484;19.092;2023-07-22T01:15:30;9.15;;;6.30;;
79143;SDS011;68551;47.484;19.092;2023-07-22T01:18:35;9.32;;;5.38;;
79143;SDS011;68551;47.484;19.092;2023-07-22T01:21:39;7.55;;;6.57;;
79143;SDS011;68551;47.484;19.092;2023-07-22T01:24:43;9.93;;;5.35;;
79143;SDS011;68551;47.484;19.092;2023-07-22T01:27:51;7.03;;;5.50;;
79143;SDS011;68551;47.484;19.092;2023-07-22T01:30:53;6.28;;;5.45;;
79143;SDS011;68551;47.484;19.092;2023-07-22T01:33:56;6.70;;;5.60;;
79143;SDS011;68551;47.484;19.092;2023-07-22T01:37:00;7.40;;;5.35;;
79143;SDS011;68551;47.484;19.092;2023-07-22T01:40:08;6.43;;;4.72;;
79143;SDS011;68551;47.484;19.092;2023-07-22T01:43:14;6.28;;;5.20;;
79143;SDS011;68551;47.484;19.092;2023-07-22T01:46:16;5.47;;;4.85;;
79143;SDS011;68551;47.484;19.092;2023-07-22T01:49:19;9.60;;;6.03;;
79143;SDS011;68551;47.484;19.092;2023-07-22T01:52:21;8.75;;;5.40;;
79143;SDS011;68551;47.484;19.092;2023-07-22T01:55:28;6.97;;;4.78;;
79143;SDS011;68551;47.484;19.092;2023-07-22T01:58:31;5.25;;;4.72;;
79143;SDS011;68551;47.484;19.092;2023-07-22T02:04:43;6.72;;;5.28;;
79143;SDS011;68551;47.484;19.092;2023-07-22T02:07:51;9.43;;;6.38;;
79143;SDS011;68551;47.484;19.092;2023-07-22T02:10:56;8.73;;;6.13;;
79143;SDS011;68551;47.484;19.092;2023-07-22T02:14:05;6.57;;;5.60;;
79143;SDS011;68551;47.484;19.092;2023-07-22T02:17:13;9.20;;;5.97;;
79143;SDS011;68551;47.484;19.092;2023-07-22T02:20:18;6.50;;;5.13;;
79143;SDS011;68551;47.484;19.092;2023-07-22T02:23:23;10.43;;;6.35;;
79143;SDS011;68551;47.484;19.092;2023-07-22T02:26:26;10.55;;;5.97;;
79143;SDS011;68551;47.484;19.092;2023-07-22T02:29:34;7.45;;;6.13;;
79143;SDS011;68551;47.484;19.092;2023-07-22T02:32:39;10.30;;;6.07;;
79143;SDS011;68551;47.484;19.092;2023-07-22T02:35:42;10.77;;;6.13;;
79143;SDS011;68551;47.484;19.092;2023-07-22T02:38:47;9.77;;;6.15;;
79143;SDS011;68551;47.484;19.092;2023-07-22T02:41:55;8.50;;;6.40;;
79143;SDS011;68551;47.484;19.092;2023-07-22T02:44:58;6.97;;;5.00;;
79143;SDS011;68551;47.484;19.092;2023-07-22T02:48:01;7.82;;;6.13;;
79143;SDS011;68551;47.484;19.092;2023-07-22T02:51:06;8.35;;;6.13;;
79143;SDS011;68551;47.484;19.092;2023-07-22T02:54:14;6.22;;;5.60;;
79143;SDS011;68551;47.484;19.092;2023-07-22T02:57:22;8.52;;;5.40;;
79143;SDS011;68551;47.484;19.092;2023-07-22T03:00:24;8.10;;;5.78;;
79143;SDS011;68551;47.484;19.092;2023-07-22T03:06:32;9.00;;;6.55;;
79143;SDS011;68551;47.484;19.092;2023-07-22T03:09:37;8.10;;;6.20;;
79143;SDS011;68551;47.484;19.092;2023-07-22T03:12:42;8.55;;;6.38;;
79143;SDS011;68551;47.484;19.092;2023-07-22T03:15:44;7.25;;;5.82;;
79143;SDS011;68551;47.484;19.092;2023-07-22T03:18:49;9.63;;;6.68;;
79143;SDS011;68551;47.484;19.092;2023-07-22T03:21:51;7.53;;;6.07;;
79143;SDS011;68551;47.484;19.092;2023-07-22T03:24:59;7.20;;;5.82;;
79143;SDS011;68551;47.484;19.092;2023-07-22T03:28:04;6.50;;;5.47;;
79143;SDS011;68551;47.484;19.092;2023-07-22T03:31:08;6.55;;;5.28;;
79143;SDS011;68551;47.484;19.092;2023-07-22T03:34:12;6.95;;;5.95;;
79143;SDS011;68551;47.484;19.092;2023-07-22T03:37:15;7.07;;;5.50;;
79143;SDS011;68551;47.484;19.092;2023-07-22T03:40:17;8.20;;;6.10;;
79143;SDS011;68551;47.484;19.092;2023-07-22T03:43:33;7.60;;;5.32;;
79143;SDS011;68551;47.484;19.092;2023-07-22T03:46:36;8.95;;;6.43;;
79143;SDS011;68551;47.484;19.092;2023-07-22T03:49:38;7.50;;;5.53;;
79143;SDS011;68551;47.484;19.092;2023-07-22T03:52:43;9.80;;;6.30;;
79143;SDS011;68551;47.484;19.092;2023-07-22T03:55:47;6.60;;;5.53;;
79143;SDS011;68551;47.484;19.092;2023-07-22T03:58:52;6.65;;;5.40;;
79143;SDS011;68551;47.484;19.092;2023-07-22T04:02:00;6.63;;;5.28;;
79143;SDS011;68551;47.484;19.092;2023-07-22T04:05:03;6.50;;;5.55;;
79143;SDS011;68551;47.484;19.092;2023-07-22T04:08:06;8.15;;;5.13;;
79143;SDS011;68551;47.484;19.092;2023-07-22T04:11:09;6.38;;;5.22;;
79143;SDS011;68551;47.484;19.092;2023-07-22T04:14:12;6.82;;;5.20;;
79143;SDS011;68551;47.484;19.092;2023-07-22T04:17:17;7.18;;;6.22;;
79143;SDS011;68551;47.484;19.092;2023-07-22T04:20:22;6.63;;;4.95;;
79143;SDS011;68551;47.484;19.092;2023-07-22T04:23:28;7.43;;;5.65;;
79143;SDS011;68551;47.484;19.092;2023-07-22T04:29:34;7.40;;;5.00;;
79143;SDS011;68551;47.484;19.092;2023-07-22T04:32:41;7.78;;;4.72;;
79143;SDS011;68551;47.484;19.092;2023-07-22T04:35:43;7.10;;;4.90;;
79143;SDS011;68551;47.484;19.092;2023-07-22T04:38:47;7.10;;;4.63;;
79143;SDS011;68551;47.484;19.092;2023-07-22T04:41:55;8.13;;;4.55;;
79143;SDS011;68551;47.484;19.092;2023-07-22T04:44:57;7.03;;;4.63;;
79143;SDS011;68551;47.484;19.092;2023-07-22T04:48:04;5.38;;;4.43;;
79143;SDS011;68551;47.484;19.092;2023-07-22T04:51:07;6.35;;;4.45;;
79143;SDS011;68551;47.484;19.092;2023-07-22T04:54:12;5.20;;;4.10;;
79143;SDS011;68551;47.484;19.092;2023-07-22T04:57:20;6.35;;;4.30;;
79143;SDS011;68551;47.484;19.092;2023-07-22T05:00:25;4.63;;;4.10;;
79143;SDS011;68551;47.484;19.092;2023-07-22T05:03:30;6.57;;;3.55;;
79143;SDS011;68551;47.484;19.092;2023-07-22T05:06:33;7.20;;;3.75;;
79143;SDS011;68551;47.484;19.092;2023-07-22T05:09:36;5.53;;;4.00;;
79143;SDS011;68551;47.484;19.092;2023-07-22T05:12:41;4.53;;;3.80;;
79143;SDS011;68551;47.484;19.092;2023-07-22T05:15:44;5.45;;;3.92;;
79143;SDS011;68551;47.484;19.092;2023-07-22T05:18:47;7.18;;;4.10;;
79143;SDS011;68551;47.484;19.092;2023-07-22T05:21:49;4.22;;;3.42;;
79143;SDS011;68551;47.484;19.092;2023-07-22T05:24:54;4.97;;;4.03;;
79143;SDS011;68551;47.484;19.092;2023-07-22T05:28:00;8.45;;;4.32;;
79143;SDS011;68551;47.484;19.092;2023-07-22T05:31:02;6.80;;;4.70;;
79143;SDS011;68551;47.484;19.092;2023-07-22T05:34:05;5.00;;;3.63;;
79143;SDS011;68551;47.484;19.092;2023-07-22T05:37:10;6.07;;;4.47;;
79143;SDS011;68551;47.484;19.092;2023-07-22T05:40:14;5.47;;;4.07;;
79143;SDS011;68551;47.484;19.092;2023-07-22T05:43:17;5.75;;;3.78;;
79143;SDS011;68551;47.484;19.092;2023-07-22T05:46:22;5.18;;;4.00;;
79143;SDS011;68551;47.484;19.092;2023-07-22T05:49:25;5.82;;;4.38;;
79143;SDS011;68551;47.484;19.092;2023-07-22T05:52:27;6.35;;;4.22;;
79143;SDS011;68551;47.484;19.092;2023-07-22T05:55:32;4.43;;;4.03;;
79143;SDS011;68551;47.484;19.092;2023-07-22T05:58:37;6.40;;;4.30;;
79143;SDS011;68551;47.484;19.092;2023-07-22T06:01:40;5.60;;;4.03;;
79143;SDS011;68551;47.484;19.092;2023-07-22T06:04:45;6.55;;;3.92;;
79143;SDS011;68551;47.484;19.092;2023-07-22T06:07:47;6.78;;;4.15;;
79143;SDS011;68551;47.484;19.092;2023-07-22T06:10:49;5.03;;;4.00;;
79143;SDS011;68551;47.484;19.092;2023-07-22T06:13:52;5.35;;;4.60;;
79143;SDS011;68551;47.484;19.092;2023-07-22T06:16:57;5.95;;;4.32;;
79143;SDS011;68551;47.484;19.092;2023-07-22T06:19:59;7.60;;;4.72;;
79143;SDS011;68551;47.484;19.092;2023-07-22T06:23:02;6.15;;;3.63;;
79143;SDS011;68551;47.484;19.092;2023-07-22T06:26:06;3.90;;;3.50;;
79143;SDS011;68551;47.484;19.092;2023-07-22T06:29:09;6.55;;;3.95;;
79143;SDS011;68551;47.484;19.092;2023-07-22T06:32:16;8.52;;;3.70;;
79143;SDS011;68551;47.484;19.092;2023-07-22T06:35:19;5.35;;;3.90;;
79143;SDS011;68551;47.484;19.092;2023-07-22T06:38:21;5.30;;;3.92;;
79143;SDS011;68551;47.484;19.092;2023-07-22T06:41:26;5.30;;;3.80;;
79143;SDS011;68551;47.484;19.092;2023-07-22T06:44:30;4.82;;;4.03;;
79143;SDS011;68551;47.484;19.092;2023-07-22T06:47:35;5.25;;;3.92;;
79143;SDS011;68551;47.484;19.092;2023-07-22T06:50:38;4.40;;;3.67;;
79143;SDS011;68551;47.484;19.092;2023-07-22T06:53:40;6.20;;;3.78;;
79143;SDS011;68551;47.484;19.092;2023-07-22T06:56:47;5.80;;;3.80;;
79143;SDS011;68551;47.484;19.092;2023-07-22T07:02:54;7.53;;;4.20;;
79143;SDS011;68551;47.484;19.092;2023-07-22T07:05:57;5.45;;;3.67;;
79143;SDS011;68551;47.484;19.092;2023-07-22T07:09:03;5.30;;;3.60;;
79143;SDS011;68551;47.484;19.092;2023-07-22T07:12:07;4.65;;;3.60;;
79143;SDS011;68551;47.484;19.092;2023-07-22T07:15:11;6.47;;;3.60;;
79143;SDS011;68551;47.484;19.092;2023-07-22T07:18:16;5.95;;;3.70;;
79143;SDS011;68551;47.484;19.092;2023-07-22T07:21:19;6.07;;;3.90;;
79143;SDS011;68551;47.484;19.092;2023-07-22T07:24:26;5.53;;;3.13;;
79143;SDS011;68551;47.484;19.092;2023-07-22T07:27:31;3.95;;;3.45;;
79143;SDS011;68551;47.484;19.092;2023-07-22T07:30:45;4.68;;;3.38;;
79143;SDS011;68551;47.484;19.092;2023-07-22T07:33:50;6.82;;;3.70;;
79143;SDS011;68551;47.484;19.092;2023-07-22T07:36:54;6.75;;;4.07;;
79143;SDS011;68551;47.484;19.092;2023-07-22T07:39:59;5.47;;;3.58;;
79143;SDS011;68551;47.484;19.092;2023-07-22T07:43:04;4.13;;;3.30;;
79143;SDS011;68551;47.484;19.092;2023-07-22T07:46:20;3.75;;;3.25;;
79143;SDS011;68551;47.484;19.092;2023-07-22T07:49:30;4.25;;;3.20;;
79143;SDS011;68551;47.484;19.092;2023-07-22T07:52:32;4.20;;;3.03;;
79143;SDS011;68551;47.484;19.092;2023-07-22T07:55:37;5.10;;;2.92;;
79143;SDS011;68551;47.484;19.092;2023-07-22T08:01:44;3.80;;;3.05;;
79143;SDS011;68551;47.484;19.092;2023-07-22T08:04:54;3.92;;;2.95;;
79143;SDS011;68551;47.484;19.092;2023-07-22T08:07:59;5.47;;;3.30;;
79143;SDS011;68551;47.484;19.092;2023-07-22T08:11:08;4.38;;;3.22;;
79143;SDS011;68551;47.484;19.092;2023-07-22T08:14:13;4.82;;;3.50;;
79143;SDS011;68551;47.484;19.092;2023-07-22T08:17:16;4.03;;;3.33;;
79143;SDS011;68551;47.484;19.092;2023-07-22T08:20:21;3.53;;;3.22;;
79143;SDS011;68551;47.484;19.092;2023-07-22T08:23:24;5.30;;;3.35;;
79143;SDS011;68551;47.484;19.092;2023-07-22T08:26:28;5.40;;;3.85;;
79143;SDS011;68551;47.484;19.092;2023-07-22T08:32:35;5.13;;;3.28;;
79143;SDS011;68551;47.484;19.092;2023-07-22T08:35:40;3.97;;;3.22;;
79143;SDS011;68551;47.484;19.092;2023-07-22T08:38:45;5.97;;;3.50;;
79143;SDS011;68551;47.484;19.092;2023-07-22T08:41:50;3.40;;;2.92;;
79143;SDS011;68551;47.484;19.092;2023-07-22T08:44:59;3.97;;;3.10;;
79143;SDS011;68551;47.484;19.092;2023-07-22T08:48:06;4.03;;;3.03;;
79143;SDS011;68551;47.484;19.092;2023-07-22T08:51:16;4.93;;;3.58;;
79143;SDS011;68551;47.484;19.092;2023-07-22T08:54:20;4.38;;;3.53;;
79143;SDS011;68551;47.484;19.092;2023-07-22T08:57:27;3.78;;;3.28;;
79143;SDS011;68551;47.484;19.092;2023-07-22T09:00:33;3.95;;;3.20;;
79143;SDS011;68551;47.484;19.092;2023-07-22T09:03:36;4.15;;;3.13;;
79143;SDS011;68551;47.484;19.092;2023-07-22T09:06:46;3.72;;;3.17;;
79143;SDS011;68551;47.484;19.092;2023-07-22T09:09:49;3.70;;;3.15;;
79143;SDS011;68551;47.484;19.092;2023-07-22T09:12:54;4.13;;;3.72;;
79143;SDS011;68551;47.484;19.092;2023-07-22T09:15:59;4.10;;;2.83;;
79143;SDS011;68551;47.484;19.092;2023-07-22T09:19:03;3.17;;;2.67;;
79143;SDS011;68551;47.484;19.092;2023-07-22T09:22:09;5.63;;;3.33;;
79143;SDS011;68551;47.484;19.092;2023-07-22T09:25:15;3.45;;;3.10;;
79143;SDS011;68551;47.484;19.092;2023-07-22T09:28:20;3.85;;;2.75;;
79143;SDS011;68551;47.484;19.092;2023-07-22T09:31:27;3.58;;;2.80;;
79143;SDS011;68551;47.484;19.092;2023-07-22T09:34:30;4.80;;;3.00;;
79143;SDS011;68551;47.484;19.092;2023-07-22T09:37:36;4.57;;;2.97;;
79143;SDS011;68551;47.484;19.092;2023-07-22T09:40:42;3.80;;;2.92;;
79143;SDS011;68551;47.484;19.092;2023-07-22T09:43:46;3.75;;;2.50;;
79143;SDS011;68551;47.484;19.092;2023-07-22T09:46:52;3.10;;;2.65;;
79143;SDS011;68551;47.484;19.092;2023-07-22T09:49:54;3.88;;;2.60;;
79143;SDS011;68551;47.484;19.092;2023-07-22T09:53:04;2.92;;;2.40;;
79143;SDS011;68551;47.484;19.092;2023-07-22T09:56:06;3.83;;;2.72;;
79143;SDS011;68551;47.484;19.092;2023-07-22T09:59:28;3.97;;;2.70;;
79143;SDS011;68551;47.484;19.092;2023-07-22T10:02:36;3.60;;;2.60;;
79143;SDS011;68551;47.484;19.092;2023-07-22T10:05:43;2.97;;;2.50;;
79143;SDS011;68551;47.484;19.092;2023-07-22T10:08:50;3.97;;;3.00;;
79143;SDS011;68551;47.484;19.092;2023-07-22T10:11:55;3.60;;;2.50;;
79143;SDS011;68551;47.484;19.092;2023-07-22T10:15:00;3.80;;;2.50;;
79143;SDS011;68551;47.484;19.092;2023-07-22T10:18:06;2.90;;;2.33;;
79143;SDS011;68551;47.484;19.092;2023-07-22T10:21:15;5.05;;;2.67;;
79143;SDS011;68551;47.484;19.092;2023-07-22T10:24:19;4.22;;;2.75;;
79143;SDS011;68551;47.484;19.092;2023-07-22T10:27:25;5.35;;;2.65;;
79143;SDS011;68551;47.484;19.092;2023-07-22T10:30:33;3.78;;;2.45;;
79143;SDS011;68551;47.484;19.092;2023-07-22T10:33:36;3.13;;;2.60;;
79143;SDS011;68551;47.484;19.092;2023-07-22T10:36:38;3.40;;;2.35;;
79143;SDS011;68551;47.484;19.092;2023-07-22T10:39:40;3.67;;;2.90;;
79143;SDS011;68551;47.484;19.092;2023-07-22T10:42:52;3.10;;;2.53;;
79143;SDS011;68551;47.484;19.092;2023-07-22T10:45:57;4.47;;;2.30;;
79143;SDS011;68551;47.484;19.092;2023-07-22T10:49:09;4.32;;;2.50;;
79143;SDS011;68551;47.484;19.092;2023-07-22T10:59:11;3.35;;;2.15;;
79143;SDS011;68551;47.484;19.092;2023-07-22T11:02:24;2.67;;;2.08;;
79143;SDS011;68551;47.484;19.092;2023-07-22T11:05:46;2.85;;;2.30;;
79143;SDS011;68551;47.484;19.092;2023-07-22T11:15:16;3.47;;;2.15;;
79143;SDS011;68551;47.484;19.092;2023-07-22T11:18:34;3.42;;;2.15;;
79143;SDS011;68551;47.484;19.092;2023-07-22T11:21:41;4.07;;;2.20;;
79143;SDS011;68551;47.484;19.092;2023-07-22T11:24:53;5.18;;;2.20;;
79143;SDS011;68551;47.484;19.092;2023-07-22T11:27:59;3.10;;;2.20;;
79143;SDS011;68551;47.484;19.092;2023-07-22T11:31:03;3.47;;;1.73;;
79143;SDS011;68551;47.484;19.092;2023-07-22T11:34:10;2.95;;;2.10;;
79143;SDS011;68551;47.484;19.092;2023-07-22T11:37:17;2.45;;;1.90;;
79143;SDS011;68551;47.484;19.092;2023-07-22T11:40:20;2.67;;;1.80;;
79143;SDS011;68551;47.484;19.092;2023-07-22T11:43:22;2.85;;;2.30;;
79143;SDS011;68551;47.484;19.092;2023-07-22T11:46:25;3.88;;;2.00;;
79143;SDS011;68551;47.484;19.092;2023-07-22T11:52:32;3.08;;;2.03;;
79143;SDS011;68551;47.484;19.092;2023-07-22T11:55:35;3.33;;;1.92;;
79143;SDS011;68551;47.484;19.092;2023-07-22T11:58:41;3.28;;;2.03;;
79143;SDS011;68551;47.484;19.092;2023-07-22T12:01:45;2.97;;;2.13;;
79143;SDS011;68551;47.484;19.092;2023-07-22T12:04:53;2.38;;;1.88;;
79143;SDS011;68551;47.484;19.092;2023-07-22T12:08:00;2.90;;;1.95;;
79143;SDS011;68551;47.484;19.092;2023-07-22T12:11:08;3.95;;;1.90;;
79143;SDS011;68551;47.484;19.092;2023-07-22T12:14:20;2.70;;;1.90;;
79143;SDS011;68551;47.484;19.092;2023-07-22T12:17:27;3.63;;;1.90;;
79143;SDS011;68551;47.484;19.092;2023-07-22T12:20:34;2.80;;;1.90;;
79143;SDS011;68551;47.484;19.092;2023-07-22T12:23:45;2.13;;;1.75;;
79143;SDS011;68551;47.484;19.092;2023-07-22T12:26:50;2.67;;;1.90;;
79143;SDS011;68551;47.484;19.092;2023-07-22T12:29:52;3.13;;;2.00;;
79143;SDS011;68551;47.484;19.092;2023-07-22T12:32:57;2.78;;;1.80;;
79143;SDS011;68551;47.484;19.092;2023-07-22T12:36:01;2.42;;;1.70;;
79143;SDS011;68551;47.484;19.092;2023-07-22T12:39:11;4.00;;;1.90;;
79143;SDS011;68551;47.484;19.092;2023-07-22T12:42:15;2.00;;;1.45;;
79143;SDS011;68551;47.484;19.092;2023-07-22T12:45:18;3.00;;;2.17;;
79143;SDS011;68551;47.484;19.092;2023-07-22T12:48:20;6.07;;;2.00;;
79143;SDS011;68551;47.484;19.092;2023-07-22T12:51:22;2.70;;;1.70;;
79143;SDS011;68551;47.484;19.092;2023-07-22T12:54:30;3.17;;;1.70;;
79143;SDS011;68551;47.484;19.092;2023-07-22T12:57:35;4.28;;;1.80;;
79143;SDS011;68551;47.484;19.092;2023-07-22T13:00:37;3.75;;;1.90;;
79143;SDS011;68551;47.484;19.092;2023-07-22T13:03:39;2.05;;;1.63;;
79143;SDS011;68551;47.484;19.092;2023-07-22T13:06:42;2.85;;;2.10;;
79143;SDS011;68551;47.484;19.092;2023-07-22T13:09:44;3.03;;;1.95;;
79143;SDS011;68551;47.484;19.092;2023-07-22T13:12:48;3.05;;;1.75;;
79143;SDS011;68551;47.484;19.092;2023-07-22T13:15:50;2.58;;;1.65;;
79143;SDS011;68551;47.484;19.092;2023-07-22T13:18:58;5.03;;;2.10;;
79143;SDS011;68551;47.484;19.092;2023-07-22T13:22:05;2.90;;;1.90;;
79143;SDS011;68551;47.484;19.092;2023-07-22T13:25:14;2.20;;;1.80;;
79143;SDS011;68551;47.484;19.092;2023-07-22T13:28:18;3.80;;;2.28;;
79143;SDS011;68551;47.484;19.092;2023-07-22T13:31:21;2.72;;;1.70;;
79143;SDS011;68551;47.484;19.092;2023-07-22T13:34:29;3.25;;;1.80;;
79143;SDS011;68551;47.484;19.092;2023-07-22T13:37:35;2.63;;;1.95;;
79143;SDS011;68551;47.484;19.092;2023-07-22T13:40:38;2.00;;;1.50;;
79143;SDS011;68551;47.484;19.092;2023-07-22T13:46:47;2.33;;;1.80;;
79143;SDS011;68551;47.484;19.092;2023-07-22T13:49:49;3.22;;;1.77;;
79143;SDS011;68551;47.484;19.092;2023-07-22T13:52:52;2.17;;;1.58;;
79143;SDS011;68551;47.484;19.092;2023-07-22T13:55:56;1.92;;;1.73;;
79143;SDS011;68551;47.484;19.092;2023-07-22T13:59:01;2.60;;;1.70;;
79143;SDS011;68551;47.484;19.092;2023-07-22T14:02:06;3.03;;;1.90;;
79143;SDS011;68551;47.484;19.092;2023-07-22T14:05:08;2.35;;;1.70;;
79143;SDS011;68551;47.484;19.092;2023-07-22T14:08:13;2.88;;;1.92;;
79143;SDS011;68551;47.484;19.092;2023-07-22T14:11:18;3.28;;;1.90;;
79143;SDS011;68551;47.484;19.092;2023-07-22T14:14:23;1.67;;;1.55;;
79143;SDS011;68551;47.484;19.092;2023-07-22T14:17:30;2.63;;;1.77;;
79143;SDS011;68551;47.484;19.092;2023-07-22T14:20:37;3.15;;;2.10;;
79143;SDS011;68551;47.484;19.092;2023-07-22T14:23:47;3.47;;;1.92;;
79143;SDS011;68551;47.484;19.092;2023-07-22T14:26:50;2.40;;;2.10;;
79143;SDS011;68551;47.484;19.092;2023-07-22T14:29:52;2.47;;;1.73;;
79143;SDS011;68551;47.484;19.092;2023-07-22T14:32:57;2.83;;;2.10;;
79143;SDS011;68551;47.484;19.092;2023-07-22T14:35:59;2.60;;;2.08;;
79143;SDS011;68551;47.484;19.092;2023-07-22T14:39:06;2.72;;;2.08;;
79143;SDS011;68551;47.484;19.092;2023-07-22T14:42:10;2.10;;;1.70;;
79143;SDS011;68551;47.484;19.092;2023-07-22T14:48:17;2.17;;;1.63;;
79143;SDS011;68551;47.484;19.092;2023-07-22T14:51:24;2.42;;;1.70;;
79143;SDS011;68551;47.484;19.092;2023-07-22T14:54:27;3.85;;;1.95;;
79143;SDS011;68551;47.484;19.092;2023-07-22T14:57:31;3.00;;;1.92;;
79143;SDS011;68551;47.484;19.092;2023-07-22T15:00:34;5.05;;;2.22;;
79143;SDS011;68551;47.484;19.092;2023-07-22T15:03:37;4.20;;;1.92;;
79143;SDS011;68551;47.484;19.092;2023-07-22T15:06:40;3.30;;;2.10;;
79143;SDS011;68551;47.484;19.092;2023-07-22T15:09:45;3.10;;;1.83;;
79143;SDS011;68551;47.484;19.092;2023-07-22T15:12:47;2.70;;;2.10;;
79143;SDS011;68551;47.484;19.092;2023-07-22T15:15:55;2.25;;;1.60;;
79143;SDS011;68551;47.484;19.092;2023-07-22T15:19:03;2.88;;;1.95;;
79143;SDS011;68551;47.484;19.092;2023-07-22T15:22:07;2.25;;;1.63;;
79143;SDS011;68551;47.484;19.092;2023-07-22T15:25:12;2.45;;;2.00;;
79143;SDS011;68551;47.484;19.092;2023-07-22T15:28:14;2.95;;;1.80;;
79143;SDS011;68551;47.484;19.092;2023-07-22T15:31:20;3.50;;;2.30;;
79143;SDS011;68551;47.484;19.092;2023-07-22T15:34:28;3.78;;;1.95;;
79143;SDS011;68551;47.484;19.092;2023-07-22T15:37:33;3.53;;;1.75;;
79143;SDS011;68551;47.484;19.092;2023-07-22T15:40:36;3.33;;;2.28;;
79143;SDS011;68551;47.484;19.092;2023-07-22T15:43:41;2.13;;;1.77;;
79143;SDS011;68551;47.484;19.092;2023-07-22T15:46:48;2.63;;;1.90;;
79143;SDS011;68551;47.484;19.092;2023-07-22T15:52:55;2.70;;;1.90;;
79143;SDS011;68551;47.484;19.092;2023-07-22T15:55:57;3.17;;;1.90;;
79143;SDS011;68551;47.484;19.092;2023-07-22T15:59:02;3.03;;;2.13;;
79143;SDS011;68551;47.484;19.092;2023-07-22T16:02:11;2.90;;;2.20;;
79143;SDS011;68551;47.484;19.092;2023-07-22T16:05:16;3.60;;;2.17;;
79143;SDS011;68551;47.484;19.092;2023-07-22T16:08:24;3.33;;;2.20;;
79143;SDS011;68551;47.484;19.092;2023-07-22T16:11:29;3.08;;;2.22;;
79143;SDS011;68551;47.484;19.092;2023-07-22T16:14:34;3.33;;;2.30;;
79143;SDS011;68551;47.484;19.092;2023-07-22T16:17:37;2.63;;;1.98;;
79143;SDS011;68551;47.484;19.092;2023-07-22T16:23:46;3.35;;;2.20;;
79143;SDS011;68551;47.484;19.092;2023-07-22T16:26:51;4.28;;;2.25;;
79143;SDS011;68551;47.484;19.092;2023-07-22T16:29:56;3.22;;;2.20;;
79143;SDS011;68551;47.484;19.092;2023-07-22T16:32:58;3.25;;;2.20;;
79143;SDS011;68551;47.484;19.092;2023-07-22T16:36:03;3.42;;;2.00;;
79143;SDS011;68551;47.484;19.092;2023-07-22T16:39:10;4.13;;;2.10;;
79143;SDS011;68551;47.484;19.092;2023-07-22T16:42:12;2.90;;;2.08;;
79143;SDS011;68551;47.484;19.092;2023-07-22T16:45:15;3.50;;;2.00;;
79143;SDS011;68551;47.484;19.092;2023-07-22T16:48:17;2.97;;;2.05;;
79143;SDS011;68551;47.484;19.092;2023-07-22T16:51:22;3.88;;;2.10;;
79143;SDS011;68551;47.484;19.092;2023-07-22T16:54:27;2.88;;;2.13;;
79143;SDS011;68551;47.484;19.092;2023-07-22T16:57:32;5.70;;;2.30;;
79143;SDS011;68551;47.484;19.092;2023-07-22T17:00:34;3.45;;;2.17;;
79143;SDS011;68551;47.484;19.092;2023-07-22T17:03:37;2.72;;;2.00;;
79143;SDS011;68551;47.484;19.092;2023-07-22T17:06:40;3.70;;;2.20;;
79143;SDS011;68551;47.484;19.092;2023-07-22T17:09:42;4.15;;;2.22;;
79143;SDS011;68551;47.484;19.092;2023-07-22T17:12:49;2.55;;;1.98;;
79143;SDS011;68551;47.484;19.092;2023-07-22T17:15:56;3.33;;;1.88;;
79143;SDS011;68551;47.484;19.092;2023-07-22T17:22:03;3.63;;;2.28;;
79143;SDS011;68551;47.484;19.092;2023-07-22T17:25:06;7.95;;;2.10;;
79143;SDS011;68551;47.484;19.092;2023-07-22T17:28:09;3.78;;;2.00;;
79143;SDS011;68551;47.484;19.092;2023-07-22T17:31:11;5.32;;;2.47;;
79143;SDS011;68551;47.484;19.092;2023-07-22T17:34:14;3.58;;;2.40;;
79143;SDS011;68551;47.484;19.092;2023-07-22T17:37:16;3.22;;;2.30;;
79143;SDS011;68551;47.484;19.092;2023-07-22T17:40:18;3.08;;;2.00;;
79143;SDS011;68551;47.484;19.092;2023-07-22T17:43:31;2.75;;;1.92;;
79143;SDS011;68551;47.484;19.092;2023-07-22T17:46:33;2.63;;;1.90;;
79143;SDS011;68551;47.484;19.092;2023-07-22T17:49:35;3.58;;;2.00;;
79143;SDS011;68551;47.484;19.092;2023-07-22T17:52:40;4.25;;;2.20;;
79143;SDS011;68551;47.484;19.092;2023-07-22T17:55:42;4.05;;;2.20;;
79143;SDS011;68551;47.484;19.092;2023-07-22T17:58:47;3.78;;;2.40;;
79143;SDS011;68551;47.484;19.092;2023-07-22T18:01:54;4.45;;;2.35;;
79143;SDS011;68551;47.484;19.092;2023-07-22T18:04:59;3.78;;;2.30;;
79143;SDS011;68551;47.484;19.092;2023-07-22T18:08:03;4.90;;;1.85;;
79143;SDS011;68551;47.484;19.092;2023-07-22T18:11:06;2.67;;;2.08;;
79143;SDS011;68551;47.484;19.092;2023-07-22T18:14:13;2.90;;;2.10;;
79143;SDS011;68551;47.484;19.092;2023-07-22T18:17:15;4.85;;;2.10;;
79143;SDS011;68551;47.484;19.092;2023-07-22T18:20:22;3.05;;;2.47;;
79143;SDS011;68551;47.484;19.092;2023-07-22T18:23:27;4.15;;;2.25;;
79143;SDS011;68551;47.484;19.092;2023-07-22T18:26:29;3.10;;;2.40;;
79143;SDS011;68551;47.484;19.092;2023-07-22T18:29:32;2.55;;;2.00;;
79143;SDS011;68551;47.484;19.092;2023-07-22T18:32:34;3.88;;;2.30;;
79143;SDS011;68551;47.484;19.092;2023-07-22T18:35:38;3.22;;;2.28;;
79143;SDS011;68551;47.484;19.092;2023-07-22T18:38:41;3.22;;;2.22;;
79143;SDS011;68551;47.484;19.092;2023-07-22T18:41:48;3.70;;;2.72;;
79143;SDS011;68551;47.484;19.092;2023-07-22T18:44:56;5.63;;;2.60;;
79143;SDS011;68551;47.484;19.092;2023-07-22T18:48:08;3.22;;;2.35;;
79143;SDS011;68551;47.484;19.092;2023-07-22T18:51:11;3.03;;;2.13;;
79143;SDS011;68551;47.484;19.092;2023-07-22T18:54:16;3.88;;;2.45;;
79143;SDS011;68551;47.484;19.092;2023-07-22T18:57:18;2.92;;;2.22;;
79143;SDS011;68551;47.484;19.092;2023-07-22T19:00:26;4.03;;;2.45;;
79143;SDS011;68551;47.484;19.092;2023-07-22T19:03:31;3.50;;;2.42;;
79143;SDS011;68551;47.484;19.092;2023-07-22T19:06:36;4.55;;;2.45;;